Time;durP1;ratioP1;P1;durP2;ratioP2;P2;SDS_P1;SDS_P2;PMS_P1;PMS_P2;Temp;Humidity;BMP_temperature;BMP_pressure;BME280_temperature;BME280_humidity;BME280_pressure;Samples;Min_cycle;Max_cycle;Signal;HPM_P1;HPM_P2
2023/01/06 00:01:36;;;;;;;1.95;1.15;;;;;;;7.20;100.00;96445.53;4996276;28;20784;-73
2023/01/06 00:04:03;;;;;;;3.97;1.13;;;;;;;7.22;100.00;96438.56;5000639;28;24561;-73
2023/01/06 00:06:30;;;;;;;2.10;1.30;;;;;;;7.25;100.00;96432.47;4998384;28;24531;-73
2023/01/06 00:08:59;;;;;;;2.75;1.63;;;;;;;7.26;100.00;96428.97;4999562;28;20768;-73
2023/01/06 00:11:26;;;;;;;2.95;1.73;;;;;;;7.28;100.00;96433.19;4995983;28;20834;-73
2023/01/06 00:13:55;;;;;;;3.65;2.50;;;;;;;7.28;100.00;96422.88;4999443;28;24807;-73
2023/01/06 00:16:22;;;;;;;5.65;2.65;;;;;;;7.31;100.00;96429.66;4998540;28;20818;-73
2023/01/06 00:18:48;;;;;;;6.30;3.42;;;;;;;7.31;100.00;96432.22;4998586;28;20780;-73
2023/01/06 00:21:16;;;;;;;2.67;2.25;;;;;;;7.34;100.00;96428.69;4996186;28;24443;-73
2023/01/06 00:23:42;;;;;;;3.25;2.05;;;;;;;7.33;100.00;96419.28;5003560;28;20771;-73
2023/01/06 00:26:10;;;;;;;1.80;1.60;;;;;;;7.36;100.00;96426.88;4998603;28;24455;-73
2023/01/06 00:28:37;;;;;;;1.73;1.33;;;;;;;7.37;100.00;96424.25;4998143;28;24799;-73
2023/01/06 00:31:09;;;;;;;1.17;0.97;;;;;;;7.39;100.00;96419.03;5000468;28;20887;-73
2023/01/06 00:33:35;;;;;;;1.50;1.02;;;;;;;7.39;100.00;96411.31;5002436;28;20793;-73
2023/01/06 00:36:02;;;;;;;1.80;1.13;;;;;;;7.39;100.00;96409.56;5005573;28;20789;-73
2023/01/06 00:38:29;;;;;;;2.15;1.10;;;;;;;7.54;100.00;96413.28;4997819;28;21147;-73
2023/01/06 00:40:56;;;;;;;2.90;1.60;;;;;;;7.55;100.00;96406.38;5003774;28;21353;-73
2023/01/06 00:43:22;;;;;;;1.40;1.20;;;;;;;7.44;100.00;96411.94;4996424;28;24444;-73
2023/01/06 00:45:49;;;;;;;1.90;1.15;;;;;;;7.36;100.00;96406.28;4998918;28;24440;-73
2023/01/06 00:48:17;;;;;;;2.55;1.15;;;;;;;7.36;100.00;96401.97;4999004;28;25001;-73
2023/01/06 00:50:43;;;;;;;2.17;1.30;;;;;;;7.34;100.00;96406.34;5003750;28;20825;-73
2023/01/06 00:53:10;;;;;;;3.10;1.40;;;;;;;7.30;100.00;96394.47;5000877;28;20801;-73
2023/01/06 00:55:36;;;;;;;1.27;1.00;;;;;;;7.30;100.00;96396.19;5000927;28;20777;-73
2023/01/06 00:58:03;;;;;;;1.90;1.20;;;;;;;7.28;100.00;96391.97;5000384;28;24803;-73
2023/01/06 01:00:29;;;;;;;1.67;1.27;;;;;;;7.30;100.00;96397.03;5001655;28;21330;-73
2023/01/06 01:02:56;;;;;;;2.80;2.00;;;;;;;7.31;100.00;96396.16;5008172;28;21141;-73
2023/01/06 01:05:24;;;;;;;7.20;3.97;;;;;;;7.34;100.00;96387.44;5004013;28;20783;-73
2023/01/06 01:07:50;;;;;;;7.53;5.25;;;;;;;7.37;100.00;96395.06;5000011;28;20812;-73
2023/01/06 01:10:16;;;;;;;4.70;3.85;;;;;;;7.39;100.00;96394.09;5001609;28;20778;-73
2023/01/06 01:12:43;;;;;;;3.08;2.50;;;;;;;7.44;100.00;96391.34;5006582;28;24810;-73
2023/01/06 01:15:10;;;;;;;2.60;1.58;;;;;;;7.45;100.00;96391.28;4999919;28;21154;-73
2023/01/06 01:17:37;;;;;;;1.63;1.00;;;;;;;7.55;100.00;96399.47;4998902;28;20795;-73
2023/01/06 01:20:04;;;;;;;1.15;1.00;;;;;;;7.49;100.00;96398.00;5001526;28;24433;-73
2023/01/06 01:22:31;;;;;;;1.63;0.93;;;;;;;7.46;100.00;96390.38;5000792;28;20775;-73
2023/01/06 01:24:58;;;;;;;2.65;0.90;;;;;;;7.43;100.00;96385.34;4997367;28;20814;-73
2023/01/06 01:27:24;;;;;;;1.85;1.15;;;;;;;7.44;100.00;96389.59;4998286;28;20784;-73
2023/01/06 01:29:51;;;;;;;3.20;1.13;;;;;;;7.42;100.00;96396.56;5001033;28;24444;-73
2023/01/06 01:32:17;;;;;;;2.97;1.27;;;;;;;7.39;100.00;96391.53;5003640;28;24486;-73
2023/01/06 01:34:44;;;;;;;1.77;1.00;;;;;;;7.40;100.00;96390.63;5000842;28;21334;-73
2023/01/06 01:37:10;;;;;;;1.63;0.75;;;;;;;7.40;100.00;96384.63;5001047;28;24995;-73
2023/01/06 01:39:38;;;;;;;1.77;0.98;;;;;;;7.40;100.00;96379.47;5004739;28;24433;-73
2023/01/06 01:42:11;;;;;;;1.10;0.73;;;;;;;7.39;100.00;96385.53;5007215;28;24440;-73
2023/01/06 01:45:01;;;;;;;1.67;1.10;;;;;;;7.37;100.00;96389.91;5005694;28;20742;-73
2023/01/06 01:47:37;;;;;;;1.67;1.17;;;;;;;7.39;100.00;96386.38;5000332;28;20659;-73
2023/01/06 01:50:08;;;;;;;1.77;1.20;;;;;;;7.41;100.00;96389.72;5004287;28;20713;-72
2023/01/06 01:52:35;;;;;;;1.45;1.00;;;;;;;7.42;100.00;96388.00;5004498;28;20758;-72
2023/01/06 01:55:05;;;;;;;1.50;1.05;;;;;;;7.40;100.00;96384.63;5000746;28;20780;-73
2023/01/06 01:57:37;;;;;;;1.35;1.10;;;;;;;7.40;100.00;96388.03;5002117;28;21294;-72
2023/01/06 02:00:07;;;;;;;1.30;0.80;;;;;;;7.43;100.00;96385.34;5004138;28;20724;-73
2023/01/06 02:02:34;;;;;;;1.13;0.88;;;;;;;7.43;100.00;96381.94;5003506;28;20693;-72
2023/01/06 02:05:01;;;;;;;1.40;1.00;;;;;;;7.45;100.00;96387.84;4999880;28;25085;-73
2023/01/06 02:07:28;;;;;;;1.52;1.10;;;;;;;7.44;100.00;96379.28;5000018;28;20812;-73
2023/01/06 02:10:02;;;;;;;1.20;0.88;;;;;;;7.44;100.00;96371.56;5008485;28;20782;-73
2023/01/06 02:12:30;;;;;;;1.48;0.95;;;;;;;7.41;100.00;96360.53;5005388;28;20711;-73
2023/01/06 02:14:57;;;;;;;1.48;0.88;;;;;;;7.43;100.00;96364.72;5001389;28;20773;-73
2023/01/06 02:17:53;;;;;;;1.40;0.90;;;;;;;7.46;100.00;96371.50;5001508;28;24440;-73
2023/01/06 02:20:50;;;;;;;1.00;0.85;;;;;;;7.45;100.00;96373.25;5004408;28;20748;-73
2023/01/06 02:24:05;;;;;;;2.20;1.10;;;;;;;7.46;100.00;96369.78;4991211;28;20764;-73
2023/01/06 02:27:06;;;;;;;1.10;0.90;;;;;;;7.46;100.00;96368.94;5000160;28;20696;-73
2023/01/06 02:30:08;;;;;;;1.40;0.70;;;;;;;7.43;100.00;96372.47;4999680;28;20780;-73
2023/01/06 02:32:52;;;;;;;1.77;1.17;;;;;;;7.38;100.00;96365.81;4998979;28;20879;-73
2023/01/06 02:35:38;;;;;;;1.95;1.00;;;;;;;7.34;100.00;96353.94;5002044;28;24448;-73
2023/01/06 02:38:17;;;;;;;2.47;1.10;;;;;;;7.31;100.00;96369.56;5004006;28;20772;-73
2023/01/06 02:41:08;;;;;;;1.67;0.90;;;;;;;7.28;100.00;96361.03;5004355;28;20649;-73
2023/01/06 02:43:46;;;;;;;1.45;0.90;;;;;;;7.27;100.00;96358.53;4998009;28;20661;-73
2023/01/06 02:46:24;;;;;;;1.25;0.90;;;;;;;7.29;100.00;96354.16;5000702;28;20696;-73
2023/01/06 02:48:59;;;;;;;1.40;0.90;;;;;;;7.31;100.00;96360.09;5001384;28;20661;-73
2023/01/06 02:51:31;;;;;;;1.00;0.70;;;;;;;7.30;100.00;96353.22;5000853;28;21325;-73
2023/01/06 02:54:08;;;;;;;1.75;0.82;;;;;;;7.32;100.00;96350.63;5001428;28;20728;-73
2023/01/06 02:56:40;;;;;;;1.52;0.82;;;;;;;7.39;100.00;96355.47;5008043;28;21231;-73
2023/01/06 02:59:14;;;;;;;1.00;0.90;;;;;;;7.38;100.00;96356.38;5006085;28;21325;-73
2023/01/06 03:01:44;;;;;;;2.30;1.30;;;;;;;7.36;100.00;96350.41;4999251;28;20686;-73
2023/01/06 03:04:16;;;;;;;2.25;0.90;;;;;;;7.34;100.00;96341.94;5006425;28;20797;-73
2023/01/06 03:06:47;;;;;;;1.38;0.85;;;;;;;7.36;100.00;96341.84;4992780;28;21257;-73
2023/01/06 03:09:16;;;;;;;1.50;0.90;;;;;;;7.36;100.00;96337.53;5001946;28;20725;-73
2023/01/06 03:11:44;;;;;;;3.45;1.00;;;;;;;7.41;100.00;96330.44;4999906;28;21149;-73
2023/01/06 03:14:18;;;;;;;0.70;0.65;;;;;;;7.40;100.00;96336.50;4998847;28;20797;-73
2023/01/06 03:16:45;;;;;;;1.30;0.90;;;;;;;7.38;100.00;96338.31;5000599;28;20672;-73
2023/01/06 03:19:13;;;;;;;1.23;0.73;;;;;;;7.32;100.00;96336.00;5003894;28;20782;-73
2023/01/06 03:21:43;;;;;;;1.17;0.82;;;;;;;7.23;100.00;96346.66;5001211;28;20775;-72
2023/01/06 03:24:12;;;;;;;1.33;0.82;;;;;;;7.18;100.00;96339.13;5001416;28;20774;-72
2023/01/06 03:26:39;;;;;;;1.00;0.60;;;;;;;7.22;100.00;96332.94;4996051;28;24432;-73
2023/01/06 03:29:07;;;;;;;0.75;0.55;;;;;;;7.23;100.00;96334.63;5003743;28;20774;-73
2023/01/06 03:31:39;;;;;;;1.27;0.80;;;;;;;7.22;100.00;96340.66;5002389;28;20825;-73
2023/01/06 03:34:17;;;;;;;0.80;0.50;;;;;;;7.23;100.00;96338.91;5000970;28;21046;-73
2023/01/06 03:36:50;;;;;;;1.70;0.70;;;;;;;7.23;100.00;96338.91;4997013;28;20689;-73
2023/01/06 03:39:20;;;;;;;1.75;0.73;;;;;;;7.28;100.00;96350.72;5001852;28;21052;-73
2023/01/06 03:44:46;;;;;;;2.72;1.42;;;;;;;7.27;100.00;96336.19;5003769;28;20660;-73
2023/01/06 03:47:18;;;;;;;10.70;4.85;;;;;;;7.28;100.00;96345.59;5001276;28;20670;-73
2023/01/06 03:49:55;;;;;;;33.58;13.85;;;;;;;7.29;100.00;96338.69;5002983;28;24982;-73
2023/01/06 03:52:27;;;;;;;21.90;11.38;;;;;;;7.32;100.00;96336.00;5003111;28;21068;-73
2023/01/06 03:54:59;;;;;;;13.05;7.15;;;;;;;7.33;100.00;96334.25;4998596;28;20843;-73
2023/01/06 03:57:30;;;;;;;1.92;1.30;;;;;;;7.33;100.00;96332.50;5000029;28;21247;-73
2023/01/06 04:00:01;;;;;;;3.05;1.13;;;;;;;7.32;100.00;96333.41;5001596;28;21403;-73
2023/01/06 04:02:28;;;;;;;6.40;1.00;;;;;;;7.32;100.00;96336.00;4998696;28;21374;-73
2023/01/06 04:05:06;;;;;;;1.65;0.65;;;;;;;7.31;100.00;96334.31;4999942;28;24432;-73
2023/01/06 04:07:33;;;;;;;1.92;0.57;;;;;;;7.34;100.00;96331.63;4996478;28;21401;-73
2023/01/06 04:09:59;;;;;;;1.33;0.65;;;;;;;7.37;100.00;96325.47;4999764;28;24441;-73
2023/01/06 04:12:38;;;;;;;2.03;0.88;;;;;;;7.34;100.00;96323.91;4998295;28;24447;-73
2023/01/06 04:15:06;;;;;;;3.38;2.17;;;;;;;7.37;100.00;96312.59;4995761;28;20707;-73
2023/01/06 04:17:32;;;;;;;7.18;5.80;;;;;;;7.36;100.00;96327.22;5002053;28;21373;-72
2023/01/06 04:19:59;;;;;;;5.47;3.20;;;;;;;7.40;100.00;96326.19;4999206;28;21124;-73
2023/01/06 04:22:27;;;;;;;6.32;3.75;;;;;;;7.38;100.00;96320.28;4998172;28;20808;-73
2023/01/06 04:24:53;;;;;;;8.50;6.47;;;;;;;7.39;100.00;96310.81;4994784;28;20783;-73
2023/01/06 04:27:20;;;;;;;9.57;6.87;;;;;;;7.41;100.00;96317.56;4999670;28;24458;-73
2023/01/06 04:29:46;;;;;;;6.65;5.05;;;;;;;7.41;100.00;96320.13;5001105;28;24441;-73
2023/01/06 04:32:13;;;;;;;5.93;4.17;;;;;;;7.41;100.00;96309.00;4999632;28;24437;-73
2023/01/06 04:34:39;;;;;;;15.77;8.60;;;;;;;7.41;100.00;96303.84;4994612;28;20799;-73
2023/01/06 04:37:06;;;;;;;14.68;8.68;;;;;;;7.35;100.00;96302.38;5002365;28;24441;-73
2023/01/06 04:39:33;;;;;;;31.35;19.52;;;;;;;7.35;100.00;96304.13;4997916;28;24428;-73
2023/01/06 04:42:00;;;;;;;2.80;1.92;;;;;;;7.31;100.00;96308.56;5001019;28;20816;-73
2023/01/06 04:44:27;;;;;;;1.60;1.08;;;;;;;7.27;100.00;96307.00;4994718;28;24432;-73
2023/01/06 04:46:53;;;;;;;1.75;1.23;;;;;;;7.25;100.00;96301.91;5002175;28;24978;-73
2023/01/06 04:49:19;;;;;;;2.63;1.80;;;;;;;7.21;100.00;96304.66;5000711;28;24989;-73
2023/01/06 04:51:46;;;;;;;3.67;1.70;;;;;;;7.18;100.00;96299.63;4999744;28;20775;-73
2023/01/06 04:54:13;;;;;;;1.90;1.00;;;;;;;7.20;100.00;96303.84;5000331;28;24455;-73
2023/01/06 04:56:40;;;;;;;1.98;0.90;;;;;;;7.18;100.00;96297.91;5001347;28;20782;-73
2023/01/06 04:59:07;;;;;;;1.45;0.77;;;;;;;7.16;100.00;96293.72;4995477;28;20821;-73
2023/01/06 05:01:33;;;;;;;1.20;0.70;;;;;;;7.21;100.00;96296.94;5000546;28;25017;-72
2023/01/06 05:04:01;;;;;;;1.00;0.80;;;;;;;7.22;100.00;96288.31;4997894;28;21138;-73
2023/01/06 05:06:27;;;;;;;1.25;0.77;;;;;;;7.27;100.00;96287.22;5001359;28;24443;-73
2023/01/06 05:08:53;;;;;;;1.38;0.80;;;;;;;7.26;100.00;96282.13;5000364;28;24994;-73
2023/01/06 05:11:22;;;;;;;1.17;0.70;;;;;;;7.25;100.00;96285.59;5002015;28;20784;-73
2023/01/06 05:13:50;;;;;;;1.00;0.60;;;;;;;7.21;100.00;96291.78;4998291;28;21402;-72
2023/01/06 05:16:19;;;;;;;1.17;0.75;;;;;;;7.19;100.00;96289.28;5006192;28;24463;-73
2023/01/06 05:18:46;;;;;;;1.20;0.77;;;;;;;7.18;100.00;96291.91;5007465;28;25007;-73
2023/01/06 05:21:13;;;;;;;2.58;0.90;;;;;;;7.17;100.00;96291.06;4999768;28;21341;-73
2023/01/06 05:23:40;;;;;;;1.52;0.73;;;;;;;7.20;100.00;96290.13;4987807;28;24445;-72
2023/01/06 05:26:07;;;;;;;2.63;0.70;;;;;;;7.23;100.00;96295.13;4985061;28;21044;-73
2023/01/06 05:28:33;;;;;;;0.83;0.57;;;;;;;7.25;100.00;96291.59;4983213;28;20781;-73
2023/01/06 05:31:02;;;;;;;0.67;0.60;;;;;;;7.26;100.00;96290.69;4982090;28;20789;-73
2023/01/06 05:33:29;;;;;;;1.70;0.70;;;;;;;7.29;100.00;96294.88;4986689;28;20862;-73
2023/01/06 05:35:58;;;;;;;0.50;0.43;;;;;;;7.32;100.00;96287.03;4983669;28;21328;-73
2023/01/06 05:38:25;;;;;;;1.05;0.52;;;;;;;7.38;100.00;96291.06;4985199;28;20922;-73
2023/01/06 05:40:51;;;;;;;0.90;0.60;;;;;;;7.38;100.00;96291.94;4988219;28;24796;-73
2023/01/06 05:43:18;;;;;;;0.75;0.57;;;;;;;7.44;100.00;96291.66;4983181;28;24441;-73
2023/01/06 05:45:45;;;;;;;0.93;0.43;;;;;;;7.42;100.00;96295.22;4981425;28;24437;-73
2023/01/06 05:48:12;;;;;;;1.27;0.60;;;;;;;7.39;100.00;96287.63;4992107;28;24436;-72
2023/01/06 05:50:39;;;;;;;1.60;0.70;;;;;;;7.45;100.00;96284.75;4992484;28;21189;-73
2023/01/06 05:53:05;;;;;;;0.80;0.70;;;;;;;7.44;100.00;96285.69;4984485;28;20784;-73
2023/01/06 05:55:32;;;;;;;1.20;0.80;;;;;;;7.44;100.00;96275.38;4982674;28;25008;-73
2023/01/06 05:57:58;;;;;;;1.95;0.70;;;;;;;7.39;100.00;96279.88;4989800;28;24437;-73
2023/01/06 06:00:25;;;;;;;2.50;0.80;;;;;;;7.38;100.00;96279.06;4988820;28;24445;-73
2023/01/06 06:02:52;;;;;;;2.40;0.73;;;;;;;7.35;100.00;96279.19;4981969;28;24499;-73
2023/01/06 06:05:19;;;;;;;0.85;0.60;;;;;;;7.39;100.00;96290.19;4982912;28;25009;-73
2023/01/06 06:07:52;;;;;;;1.00;0.60;;;;;;;7.36;100.00;96298.06;4985304;28;20916;-73
2023/01/06 06:10:19;;;;;;;0.80;0.60;;;;;;;7.38;100.00;96291.06;4992637;28;21145;-73
2023/01/06 06:12:45;;;;;;;1.00;0.80;;;;;;;7.41;100.00;96289.22;4991790;28;24452;-73
2023/01/06 06:15:12;;;;;;;1.30;0.70;;;;;;;7.38;100.00;96291.06;4991049;28;20796;-73
2023/01/06 06:17:38;;;;;;;0.85;0.60;;;;;;;7.37;100.00;96281.69;4978769;28;21135;-73
2023/01/06 06:20:06;;;;;;;1.30;0.73;;;;;;;7.33;100.00;96280.97;4984541;28;21150;-73
2023/01/06 06:22:33;;;;;;;1.35;0.70;;;;;;;7.29;100.00;96292.31;4997037;28;20825;-73
2023/01/06 06:25:00;;;;;;;2.20;0.80;;;;;;;7.25;100.00;96294.16;5010326;28;21366;-73
2023/01/06 06:27:27;;;;;;;0.87;0.70;;;;;;;7.22;100.00;96301.19;5006776;28;24863;-72
2023/01/06 06:29:54;;;;;;;1.13;0.75;;;;;;;7.24;100.00;96296.81;5003482;28;20782;-73
2023/01/06 06:32:20;;;;;;;1.20;0.73;;;;;;;7.23;100.00;96298.56;5001972;28;24443;-73
2023/01/06 06:34:47;;;;;;;1.20;0.85;;;;;;;7.24;100.00;96291.66;5000114;28;24453;-72
2023/01/06 06:37:13;;;;;;;3.47;0.77;;;;;;;7.26;100.00;96298.41;5003672;28;20779;-73
2023/01/06 06:39:41;;;;;;;1.55;1.20;;;;;;;7.24;100.00;96296.81;5001607;28;20810;-73
2023/01/06 06:42:07;;;;;;;9.73;6.85;;;;;;;7.23;100.00;96306.28;5002751;28;20824;-73
2023/01/06 06:44:34;;;;;;;8.55;5.65;;;;;;;7.24;100.00;96313.13;5003099;28;25049;-72
2023/01/06 06:47:00;;;;;;;8.77;5.65;;;;;;;7.25;100.00;96307.06;4999371;28;24986;-72
2023/01/06 06:49:27;;;;;;;4.65;3.05;;;;;;;7.25;100.00;96317.34;5000706;28;24816;-73
2023/01/06 06:51:53;;;;;;;5.55;3.80;;;;;;;7.30;100.00;96313.75;5003190;28;24509;-72
2023/01/06 06:54:20;;;;;;;7.30;3.75;;;;;;;7.27;100.00;96318.16;5006476;28;24456;-73
2023/01/06 06:56:48;;;;;;;5.65;3.65;;;;;;;7.28;100.00;96327.53;5002390;28;24433;-72
2023/01/06 06:59:14;;;;;;;2.72;2.10;;;;;;;7.26;100.00;96321.59;4999146;28;24440;-73
2023/01/06 07:01:41;;;;;;;5.25;3.65;;;;;;;7.28;100.00;96322.38;5001341;28;24436;-73
2023/01/06 07:04:08;;;;;;;3.72;1.83;;;;;;;7.29;100.00;96315.50;5005413;28;24799;-73
2023/01/06 07:06:35;;;;;;;2.25;1.17;;;;;;;7.34;100.00;96323.91;4998539;28;24441;-73
2023/01/06 07:09:02;;;;;;;2.40;1.65;;;;;;;7.43;100.00;96323.50;4999950;28;20787;-73
2023/01/06 07:11:28;;;;;;;2.55;2.28;;;;;;;7.38;100.00;96327.16;5001572;28;20780;-73
2023/01/06 07:13:56;;;;;;;3.10;2.10;;;;;;;7.32;100.00;96328.25;5005173;28;20782;-73
2023/01/06 07:16:25;;;;;;;2.07;1.53;;;;;;;7.33;100.00;96327.34;5003540;28;20822;-73
2023/01/06 07:18:51;;;;;;;1.58;1.45;;;;;;;7.32;100.00;96337.72;4998739;28;21336;-72
2023/01/06 07:21:18;;;;;;;1.30;0.90;;;;;;;7.29;100.00;96336.09;4999157;28;24443;-72
2023/01/06 07:23:44;;;;;;;1.75;0.95;;;;;;;7.24;100.00;96331.16;5007993;28;24443;-73
2023/01/06 07:26:11;;;;;;;1.27;1.17;;;;;;;7.23;100.00;96331.19;5000589;28;24424;-73
2023/01/06 07:28:37;;;;;;;1.88;1.00;;;;;;;7.22;100.00;96332.94;5001294;28;24439;-73
2023/01/06 07:31:05;;;;;;;1.23;0.60;;;;;;;7.23;100.00;96344.94;4999404;28;24444;-74
2023/01/06 07:33:32;;;;;;;2.45;1.17;;;;;;;7.22;100.00;96344.97;4998289;28;21187;-73
2023/01/06 07:35:58;;;;;;;8.00;3.85;;;;;;;7.24;100.00;96350.94;5008748;28;21180;-73
2023/01/06 07:38:25;;;;;;;3.80;2.40;;;;;;;7.22;100.00;96350.13;5009890;28;24443;-73
2023/01/06 07:40:52;;;;;;;10.83;4.30;;;;;;;7.19;100.00;96348.53;5004800;28;20785;-73
2023/01/06 07:43:18;;;;;;;5.40;3.30;;;;;;;7.18;100.00;96357.16;4995916;28;20784;-73
2023/01/06 07:45:46;;;;;;;1.90;1.20;;;;;;;7.21;100.00;96351.03;4998353;28;24428;-73
2023/01/06 07:48:14;;;;;;;2.15;1.92;;;;;;;7.21;100.00;96351.88;4995354;28;20871;-73
2023/01/06 07:50:41;;;;;;;10.80;7.22;;;;;;;7.22;100.00;96350.97;5001105;28;20820;-73
2023/01/06 07:53:08;;;;;;;3.80;2.20;;;;;;;7.20;100.00;96362.25;4995634;28;24994;-73
2023/01/06 07:55:35;;;;;;;2.42;1.80;;;;;;;7.17;100.00;96367.53;5001623;28;20828;-73
2023/01/06 07:58:04;;;;;;;1.90;1.20;;;;;;;7.16;100.00;96371.00;4996670;28;20776;-73
2023/01/06 08:00:30;;;;;;;2.05;0.88;;;;;;;7.23;100.00;96377.56;4999621;28;20783;-73
2023/01/06 08:02:57;;;;;;;2.22;1.10;;;;;;;7.26;100.00;96382.59;5003967;28;24440;-73
2023/01/06 08:05:25;;;;;;;1.90;0.90;;;;;;;7.22;100.00;96375.91;4998314;28;24455;-73
2023/01/06 08:07:51;;;;;;;1.60;1.10;;;;;;;7.25;100.00;96379.19;5005848;28;20823;-73
2023/01/06 08:10:17;;;;;;;1.90;1.00;;;;;;;7.24;100.00;96387.00;5008093;28;24432;-73
2023/01/06 08:12:44;;;;;;;1.17;0.93;;;;;;;7.23;100.00;96386.16;5007583;28;24440;-73
2023/01/06 08:15:11;;;;;;;1.10;0.82;;;;;;;7.27;100.00;96389.44;5007115;28;24455;-73
2023/01/06 08:17:37;;;;;;;0.90;0.43;;;;;;;7.16;100.00;96378.75;5008741;28;21141;-73
2023/01/06 08:20:05;;;;;;;0.20;0.20;;;;;;;7.13;100.00;96384.84;5008076;28;24448;-73
2023/01/06 08:22:33;;;;;;;1.48;0.25;;;;;;;7.16;100.00;96381.31;5001158;28;20873;-73
2023/01/06 08:24:59;;;;;;;0.77;0.10;;;;;;;7.22;100.00;96383.63;5004043;28;24436;-74
2023/01/06 08:27:27;;;;;;;0.30;0.20;;;;;;;7.18;100.00;96395.78;5008024;28;24482;-73
2023/01/06 08:29:54;;;;;;;0.30;0.20;;;;;;;7.17;100.00;96390.72;4998067;28;20779;-73
2023/01/06 08:32:20;;;;;;;0.63;0.30;;;;;;;7.18;100.00;96398.38;5003911;28;24850;-73
2023/01/06 08:34:47;;;;;;;0.47;0.20;;;;;;;7.25;100.00;96402.38;5003384;28;25024;-73
2023/01/06 08:37:14;;;;;;;0.73;0.20;;;;;;;7.24;100.00;96394.72;5007835;28;20779;-73
2023/01/06 08:39:41;;;;;;;0.30;0.20;;;;;;;7.23;100.00;96398.19;4997874;28;24815;-72
2023/01/06 08:42:08;;;;;;;0.20;0.15;;;;;;;7.22;100.00;96401.66;5001773;28;24517;-73
2023/01/06 08:44:35;;;;;;;0.88;0.35;;;;;;;7.25;100.00;96397.22;5004033;28;20791;-73
2023/01/06 08:47:01;;;;;;;0.60;0.20;;;;;;;7.23;100.00;96399.03;5009029;28;20785;-73
2023/01/06 08:49:28;;;;;;;0.50;0.10;;;;;;;7.25;100.00;96402.38;5002074;28;24433;-73
2023/01/06 08:51:54;;;;;;;0.47;0.37;;;;;;;7.25;100.00;96404.13;5002074;28;25070;-70
2023/01/06 08:54:21;;;;;;;0.40;0.28;;;;;;;7.40;100.00;96416.41;5005801;28;24459;-73
2023/01/06 08:56:48;;;;;;;0.38;0.20;;;;;;;7.35;100.00;96417.50;5009611;28;25021;-74
2023/01/06 08:59:17;;;;;;;0.60;0.20;;;;;;;7.34;100.00;96406.34;5004129;28;24425;-75
2023/01/06 09:01:44;;;;;;;0.60;0.20;;;;;;;7.39;100.00;96419.03;5004964;28;20823;-74
2023/01/06 09:04:12;;;;;;;0.43;0.20;;;;;;;7.42;100.00;96430.06;5005963;28;20785;-74
2023/01/06 09:06:39;;;;;;;0.13;0.10;;;;;;;7.45;100.00;96429.94;5011930;28;24435;-74
2023/01/06 09:09:07;;;;;;;1.52;0.40;;;;;;;7.48;100.00;96427.22;5007880;28;21184;-74
2023/01/06 09:11:34;;;;;;;0.55;0.22;;;;;;;7.49;100.00;96431.50;5012941;28;20827;-74
2023/01/06 09:14:02;;;;;;;1.60;0.20;;;;;;;7.48;100.00;96432.38;5003022;28;21118;-74
2023/01/06 09:16:29;;;;;;;0.90;0.38;;;;;;;7.54;100.00;96436.47;5005331;28;20867;-74
2023/01/06 09:18:56;;;;;;;0.55;0.30;;;;;;;7.59;100.00;96420.81;5008042;28;24432;-74
2023/01/06 09:21:23;;;;;;;9.05;3.90;;;;;;;7.71;100.00;96417.72;4994799;28;24451;-74
2023/01/06 09:23:50;;;;;;;4.10;2.85;;;;;;;7.77;100.00;96414.91;5010437;28;24438;-74
2023/01/06 09:26:18;;;;;;;1.88;1.40;;;;;;;7.81;100.00;96421.59;4997884;28;24425;-74
2023/01/06 09:28:46;;;;;;;3.00;1.83;;;;;;;7.84;100.00;96424.06;5005113;28;20861;-74
2023/01/06 09:31:14;;;;;;;0.88;0.60;;;;;;;7.87;100.00;96417.94;5004725;28;24437;-75
2023/01/06 09:33:40;;;;;;;1.60;1.10;;;;;;;7.97;100.00;96432.97;5005078;28;24432;-74
2023/01/06 09:36:07;;;;;;;1.20;0.93;;;;;;;7.99;100.00;96438.91;4999050;28;20864;-75
2023/01/06 09:38:34;;;;;;;1.70;1.20;;;;;;;7.99;100.00;96433.75;5005139;28;21148;-75
2023/01/06 09:41:14;;;;;;;0.95;0.77;;;;;;;8.07;100.00;96437.75;5004884;28;24447;-75
2023/01/06 09:43:48;;;;;;;0.97;0.60;;;;;;;8.09;100.00;96439.34;5001525;28;24520;-74
2023/01/06 09:46:19;;;;;;;1.50;1.23;;;;;;;8.04;100.00;96438.69;5002777;28;24436;-74
2023/01/06 09:48:55;;;;;;;0.40;0.35;;;;;;;8.05;100.00;96448.13;4994166;28;21374;-74
2023/01/06 09:51:25;;;;;;;1.10;0.90;;;;;;;8.10;100.00;96450.50;5006260;28;24445;-75
2023/01/06 09:53:56;;;;;;;0.80;0.57;;;;;;;8.10;100.00;96456.50;4998605;28;20806;-74
2023/01/06 09:56:24;;;;;;;0.90;0.68;;;;;;;8.21;100.00;96445.75;5003766;28;20836;-74
2023/01/06 09:58:58;;;;;;;2.10;1.20;;;;;;;8.24;100.00;96437.88;5003133;28;21361;-73
2023/01/06 10:01:30;;;;;;;1.10;0.50;;;;;;;8.15;100.00;96426.19;5003893;28;24444;-74
2023/01/06 10:03:59;;;;;;;0.88;0.80;;;;;;;8.19;100.00;96430.34;4997198;28;24433;-74
2023/01/06 10:06:33;;;;;;;1.20;0.40;;;;;;;8.19;100.00;96425.16;5003823;28;24813;-74
2023/01/06 10:09:10;;;;;;;1.10;0.93;;;;;;;8.20;100.00;96423.44;4997179;28;20722;-74
2023/01/06 10:11:50;;;;;;;1.20;0.80;;;;;;;8.17;100.00;96433.88;4998168;28;20697;-74
2023/01/06 10:14:23;;;;;;;1.00;0.70;;;;;;;8.22;100.00;96422.44;5001569;28;20735;-74
2023/01/06 10:17:04;;;;;;;1.60;0.82;;;;;;;8.24;100.00;96417.22;5001009;28;20684;-73
2023/01/06 10:19:47;;;;;;;0.32;0.30;;;;;;;8.21;100.00;96407.88;4999606;28;20694;-73
2023/01/06 10:22:22;;;;;;;0.30;0.20;;;;;;;8.27;100.00;96403.34;4995972;28;20668;-74
2023/01/06 10:24:54;;;;;;;0.50;0.30;;;;;;;8.33;100.00;96391.00;5003922;28;21293;-75
2023/01/06 10:27:27;;;;;;;0.90;0.40;;;;;;;8.34;100.00;96384.94;4996495;28;20842;-74
2023/01/06 10:29:56;;;;;;;0.70;0.20;;;;;;;8.40;100.00;96387.28;5003960;28;20724;-75
2023/01/06 10:32:29;;;;;;;0.75;0.30;;;;;;;8.42;100.00;96380.31;4996581;28;20766;-74
2023/01/06 10:34:56;;;;;;;0.30;0.15;;;;;;;8.47;100.00;96375.78;5003551;28;20650;-74
2023/01/06 10:37:26;;;;;;;0.70;0.20;;;;;;;8.53;100.00;96373.81;5001401;28;21348;-74
2023/01/06 10:40:00;;;;;;;0.60;0.30;;;;;;;8.54;100.00;96376.34;5006836;28;20716;-74
2023/01/06 10:42:58;;;;;;;0.17;0.10;;;;;;;8.50;100.00;96379.16;5004313;28;20754;-74
2023/01/06 10:45:28;;;;;;;2.45;0.80;;;;;;;8.41;100.00;96370.03;5003765;28;20652;-74
2023/01/06 10:47:57;;;;;;;1.27;0.73;;;;;;;8.40;100.00;96364.06;5002318;28;21272;-74
2023/01/06 10:50:23;;;;;;;0.32;0.17;;;;;;;8.50;100.00;96361.91;5002249;28;24452;-74
2023/01/06 10:52:50;;;;;;;0.22;0.22;;;;;;;8.46;100.00;96363.78;5003533;28;24448;-74
2023/01/06 10:55:32;;;;;;;0.70;0.40;;;;;;;8.45;100.00;96349.22;4997696;28;24437;-71
2023/01/06 10:58:11;;;;;;;0.80;0.30;;;;;;;8.51;100.00;96342.09;5007975;28;24460;-73
2023/01/06 11:00:53;;;;;;;0.70;0.40;;;;;;;8.56;100.00;96348.69;4999427;28;24433;-74
2023/01/06 11:03:21;;;;;;;0.32;0.10;;;;;;;8.57;100.00;96350.41;4999995;28;24803;-74
2023/01/06 11:05:47;;;;;;;0.22;0.20;;;;;;;8.62;100.00;96355.34;5003132;28;20782;-73
2023/01/06 11:08:16;;;;;;;0.22;0.20;;;;;;;8.53;100.00;96353.16;5003923;28;24520;-73
2023/01/06 11:10:50;;;;;;;0.55;0.35;;;;;;;8.50;100.00;96358.50;4999929;28;20818;-73
2023/01/06 11:13:24;;;;;;;1.10;0.52;;;;;;;8.50;100.00;96363.66;5000362;28;21032;-73
2023/01/06 11:15:51;;;;;;;0.98;0.80;;;;;;;8.50;100.00;96363.66;4997524;28;20709;-74
2023/01/06 11:18:22;;;;;;;4.22;2.33;;;;;;;8.51;100.00;96358.41;5000831;28;24444;-73
2023/01/06 11:21:04;;;;;;;1.20;0.70;;;;;;;8.49;100.00;96357.63;4998548;28;24451;-73
2023/01/06 11:23:30;;;;;;;1.05;0.80;;;;;;;8.52;100.00;96359.25;4985692;28;24516;-73
2023/01/06 11:26:07;;;;;;;44.20;27.08;;;;;;;8.52;100.00;96356.66;4984536;28;20785;-74
2023/01/06 11:28:34;;;;;;;46.05;26.63;;;;;;;8.54;100.00;96357.44;4978352;28;24444;-74
2023/01/06 11:31:05;;;;;;;15.45;11.68;;;;;;;8.54;100.00;96353.13;4976581;28;24448;-74
2023/01/06 11:33:36;;;;;;;1.70;1.27;;;;;;;8.61;100.00;96353.69;4982859;28;21521;-73
2023/01/06 11:36:09;;;;;;;0.43;0.35;;;;;;;8.64;100.00;96358.69;4981941;28;20697;-74
2023/01/06 11:38:42;;;;;;;0.40;0.22;;;;;;;8.68;100.00;96352.50;4984095;28;20780;-74
2023/01/06 11:41:11;;;;;;;0.30;0.22;;;;;;;8.79;100.00;96346.81;4984572;28;20854;-73
2023/01/06 11:43:42;;;;;;;1.30;1.13;;;;;;;8.81;100.00;96345.00;4981313;28;24449;-74
2023/01/06 11:46:10;;;;;;;1.25;0.80;;;;;;;8.78;100.00;96338.22;4985194;28;20772;-73
2023/01/06 11:48:46;;;;;;;0.45;0.38;;;;;;;8.85;100.00;96342.19;4986087;28;24484;-74